Time;durP1;ratioP1;P1;durP2;ratioP2;P2;SDS_P1;SDS_P2;PMS_P1;PMS_P2;Temp;Humidity;BMP_temperature;BMP_pressure;BME280_temperature;BME280_humidity;BME280_pressure;Samples;Min_cycle;Max_cycle;Signal;HPM_P1;HPM_P2
2023/07/05 00:00:22;;;;;;;15.82;6.65;;;;;;;15.80;100.00;100398.59;4984283;28;20027;-60
2023/07/05 00:02:52;;;;;;;11.50;6.47;;;;;;;15.77;100.00;100386.34;4985928;28;20383;-60
2023/07/05 00:05:17;;;;;;;9.82;6.32;;;;;;;15.73;100.00;100374.09;4982695;28;20081;-60
2023/07/05 00:07:42;;;;;;;12.20;5.80;;;;;;;15.72;100.00;100361.84;4984798;28;20035;-63
2023/07/05 00:10:08;;;;;;;11.55;6.03;;;;;;;15.69;100.00;100351.34;4964602;28;20670;-63
2023/07/05 00:12:34;;;;;;;12.13;5.95;;;;;;;15.64;100.00;100337.34;4989237;28;20033;-63
2023/07/05 00:14:59;;;;;;;10.45;5.22;;;;;;;15.63;100.00;100341.75;4988893;28;20032;-63
2023/07/05 00:17:25;;;;;;;11.27;5.65;;;;;;;15.64;100.00;100348.75;4988703;28;20022;-63
2023/07/05 00:19:51;;;;;;;10.30;5.10;;;;;;;15.64;100.00;100337.34;4987541;28;20033;-65
2023/07/05 00:22:16;;;;;;;10.07;5.30;;;;;;;15.64;100.00;100306.72;4989415;28;20113;-65
2023/07/05 00:24:42;;;;;;;8.85;5.25;;;;;;;15.65;100.00;100307.59;4987250;28;20053;-65
2023/07/05 00:27:07;;;;;;;9.15;5.10;;;;;;;15.67;100.00;100286.56;4989429;28;20551;-65
2023/07/05 00:29:32;;;;;;;12.60;5.50;;;;;;;15.63;100.00;100288.34;4988344;28;20033;-64
2023/07/05 00:31:58;;;;;;;7.70;4.35;;;;;;;15.61;100.00;100285.75;4987356;28;20030;-64
2023/07/05 00:34:23;;;;;;;9.38;4.70;;;;;;;15.61;100.00;100285.75;4987707;28;20046;-65
2023/07/05 00:36:48;;;;;;;9.43;5.18;;;;;;;15.61;100.00;100266.47;4968989;28;20029;-65
2023/07/05 00:39:14;;;;;;;9.35;4.72;;;;;;;15.59;100.00;100252.50;4987048;28;20401;-65
2023/07/05 00:41:40;;;;;;;8.65;4.97;;;;;;;15.56;100.00;100228.88;4988063;28;20030;-65
2023/07/05 00:44:05;;;;;;;9.05;4.85;;;;;;;15.50;100.00;100224.53;4986334;28;20202;-65
2023/07/05 00:46:33;;;;;;;7.20;4.78;;;;;;;15.45;100.00;100232.44;4989487;28;20073;-65
2023/07/05 00:49:03;;;;;;;7.88;4.55;;;;;;;15.43;100.00;100254.34;4987967;28;20525;-65
2023/07/05 00:51:50;;;;;;;10.20;4.57;;;;;;;15.43;100.00;100254.34;4964651;28;20041;-65
2023/07/05 00:54:22;;;;;;;9.90;5.00;;;;;;;15.45;100.00;100247.31;4969950;28;20033;-65
2023/07/05 00:56:52;;;;;;;10.00;4.63;;;;;;;15.45;100.00;100248.22;4988242;28;20515;-65
2023/07/05 00:59:20;;;;;;;10.15;4.30;;;;;;;15.44;100.00;100237.72;4986068;28;20500;-65
2023/07/05 01:01:46;;;;;;;7.68;4.20;;;;;;;15.39;100.00;100221.97;4987286;28;20472;-64
2023/07/05 01:04:11;;;;;;;10.43;5.00;;;;;;;15.38;100.00;100214.09;4987788;28;20036;-65
2023/07/05 01:06:39;;;;;;;9.82;4.78;;;;;;;15.42;100.00;100219.31;4987241;28;20041;-65
2023/07/05 01:09:06;;;;;;;10.07;4.97;;;;;;;15.42;100.00;100224.56;4988178;28;20054;-65
2023/07/05 01:12:02;;;;;;;8.82;4.78;;;;;;;15.40;100.00;100205.34;4989032;28;20035;-65
2023/07/05 01:14:35;;;;;;;10.10;4.60;;;;;;;15.41;100.00;100212.34;4987881;28;20520;-65
2023/07/05 01:17:24;;;;;;;8.45;4.15;;;;;;;15.40;100.00;100210.59;4988122;28;20406;-64
2023/07/05 01:19:52;;;;;;;10.17;4.70;;;;;;;15.39;100.00;100211.47;4980084;28;20069;-65
2023/07/05 01:22:54;;;;;;;10.75;4.50;;;;;;;15.38;100.00;100203.59;4988308;28;20036;-65
2023/07/05 01:25:55;;;;;;;7.45;4.20;;;;;;;15.40;100.00;100204.47;4988112;28;20030;-65
2023/07/05 01:28:50;;;;;;;10.98;4.65;;;;;;;15.44;100.00;100217.56;4987877;28;20029;-65
2023/07/05 01:31:51;;;;;;;9.30;4.63;;;;;;;15.48;100.00;100203.53;4988446;28;20034;-64
2023/07/05 01:34:26;;;;;;;8.68;4.05;;;;;;;15.46;100.00;100207.91;4987489;28;20053;-65
2023/07/05 01:36:51;;;;;;;7.97;4.25;;;;;;;15.47;100.00;100212.28;4988413;28;20595;-64
2023/07/05 01:39:17;;;;;;;7.43;4.10;;;;;;;15.51;100.00;100222.78;4984961;28;20057;-64
2023/07/05 01:41:43;;;;;;;7.72;4.45;;;;;;;15.53;100.00;100223.66;4987345;28;20524;-64
2023/07/05 01:44:11;;;;;;;10.05;4.07;;;;;;;15.54;100.00;100221.00;4988155;28;20018;-64
2023/07/05 01:46:50;;;;;;;6.82;3.60;;;;;;;15.54;100.00;100221.00;4985899;28;20034;-64
2023/07/05 01:49:31;;;;;;;6.60;3.88;;;;;;;15.57;100.00;100222.72;4986729;28;20521;-64
2023/07/05 01:52:06;;;;;;;7.47;3.58;;;;;;;15.59;100.00;100229.72;4977988;28;20045;-64
2023/07/05 01:54:53;;;;;;;8.57;4.15;;;;;;;15.62;100.00;100234.06;4985234;28;20026;-64
2023/07/05 01:57:27;;;;;;;8.35;4.43;;;;;;;15.60;100.00;100227.97;4985726;28;20030;-64
2023/07/05 02:00:02;;;;;;;7.07;3.85;;;;;;;15.62;100.00;100244.59;4984839;28;20484;-64
2023/07/05 02:02:36;;;;;;;7.85;3.90;;;;;;;15.61;100.00;100253.34;4984966;28;20038;-64
2023/07/05 02:05:03;;;;;;;6.40;3.33;;;;;;;15.62;100.00;100262.97;4983729;28;20135;-64
2023/07/05 02:07:30;;;;;;;7.28;3.95;;;;;;;15.59;100.00;100268.25;4983670;28;20080;-64
2023/07/05 02:09:55;;;;;;;7.05;3.20;;;;;;;15.63;100.00;100247.19;4983490;28;20068;-64
2023/07/05 02:12:21;;;;;;;14.07;3.42;;;;;;;15.64;100.00;100292.72;4983728;28;20065;-65
2023/07/05 02:14:47;;;;;;;5.35;3.17;;;;;;;15.60;100.00;100286.63;4985467;28;20573;-65
2023/07/05 02:17:13;;;;;;;8.10;2.78;;;;;;;15.48;100.00;100300.69;4985113;28;20034;-64
2023/07/05 02:19:38;;;;;;;6.35;2.47;;;;;;;15.68;94.15;100306.72;4985077;28;20030;-65
2023/07/05 02:22:04;;;;;;;5.10;2.30;;;;;;;15.40;95.52;100314.75;4983528;28;20040;-64
2023/07/05 02:24:29;;;;;;;5.97;2.55;;;;;;;15.32;94.05;100314.75;4985759;28;20028;-64
2023/07/05 02:26:55;;;;;;;4.30;2.33;;;;;;;15.12;94.44;100330.59;4985354;28;20034;-64
2023/07/05 02:29:21;;;;;;;6.40;2.83;;;;;;;15.00;93.23;100322.75;4985141;28;20516;-64
2023/07/05 02:31:46;;;;;;;7.25;2.95;;;;;;;14.86;92.60;100338.53;4984169;28;20029;-64
2023/07/05 02:34:11;;;;;;;5.32;2.72;;;;;;;14.78;92.30;100343.78;4984477;28;20164;-64
2023/07/05 02:36:36;;;;;;;9.30;3.40;;;;;;;14.66;93.62;100349.06;4984925;28;20538;-64
2023/07/05 02:39:02;;;;;;;6.60;2.88;;;;;;;14.58;95.30;100351.66;4983633;28;20026;-64
2023/07/05 02:41:27;;;;;;;7.32;3.15;;;;;;;14.55;95.24;100356.91;4984108;28;20792;-64
2023/07/05 02:43:53;;;;;;;6.50;2.70;;;;;;;14.45;96.69;100363.88;4983962;28;20121;-64
2023/07/05 02:46:18;;;;;;;5.45;2.58;;;;;;;14.61;92.94;100351.66;4984889;28;20030;-63
2023/07/05 02:48:45;;;;;;;8.07;3.53;;;;;;;14.42;93.47;100351.69;4986098;28;20066;-64
2023/07/05 02:51:10;;;;;;;7.63;3.30;;;;;;;14.40;92.85;100356.03;4984556;28;20774;-63
2023/07/05 02:53:36;;;;;;;6.55;3.13;;;;;;;14.23;94.46;100350.78;4985231;28;20034;-64
2023/07/05 02:56:01;;;;;;;7.95;3.20;;;;;;;14.15;95.30;100333.31;4986341;28;20060;-63
2023/07/05 02:58:27;;;;;;;7.78;3.35;;;;;;;14.04;95.85;100351.66;4986698;28;20033;-64
2023/07/05 03:00:52;;;;;;;7.90;3.17;;;;;;;14.01;94.79;100343.78;4966318;28;20042;-63
2023/07/05 03:03:17;;;;;;;9.25;3.13;;;;;;;14.03;95.02;100340.31;4984161;28;20407;-64
2023/07/05 03:05:43;;;;;;;7.55;3.40;;;;;;;13.94;95.73;100347.28;4985755;28;20030;-63
2023/07/05 03:08:08;;;;;;;7.47;3.40;;;;;;;13.95;95.71;100349.88;4985729;28;20022;-63
2023/07/05 03:10:38;;;;;;;8.40;3.63;;;;;;;13.93;96.08;100349.00;4962165;28;20038;-63
2023/07/05 03:13:03;;;;;;;8.40;3.13;;;;;;;13.90;95.44;100346.38;4985342;28;20061;-64
2023/07/05 03:15:30;;;;;;;10.30;3.70;;;;;;;13.78;95.30;100344.59;4985367;28;20057;-63
2023/07/05 03:17:55;;;;;;;9.45;4.05;;;;;;;13.73;94.86;100339.38;4985483;28;20038;-63
2023/07/05 03:20:21;;;;;;;6.85;3.78;;;;;;;13.85;93.92;100349.00;4986265;28;20034;-63
2023/07/05 03:22:46;;;;;;;7.85;3.60;;;;;;;13.77;93.97;100344.59;4984850;28;20034;-63
2023/07/05 03:25:12;;;;;;;11.90;3.90;;;;;;;13.77;93.53;100349.84;4985474;28;20404;-63
2023/07/05 03:27:37;;;;;;;10.57;4.05;;;;;;;13.66;94.04;100341.97;4986891;28;20034;-63
2023/07/05 03:30:02;;;;;;;8.70;4.00;;;;;;;13.64;94.62;100341.06;4986554;28;20030;-63
2023/07/05 03:32:29;;;;;;;7.85;3.63;;;;;;;13.64;95.37;100336.72;4985912;28;20413;-64
2023/07/05 03:34:54;;;;;;;8.55;4.57;;;;;;;13.59;94.64;100346.31;4984160;28;20387;-63
2023/07/05 03:37:20;;;;;;;10.73;4.30;;;;;;;13.73;93.66;100344.59;4985987;28;20019;-63
2023/07/05 03:39:45;;;;;;;8.82;4.32;;;;;;;13.67;93.82;100343.69;4986698;28;20694;-63
2023/07/05 03:42:10;;;;;;;9.93;3.78;;;;;;;13.64;94.89;100349.78;4985818;28;20030;-63
2023/07/05 03:44:35;;;;;;;11.88;4.93;;;;;;;13.63;94.68;100341.94;4986414;28;20030;-63
2023/07/05 03:47:01;;;;;;;9.40;4.45;;;;;;;13.63;94.46;100344.56;4986620;28;20509;-63
2023/07/05 03:49:26;;;;;;;10.85;4.88;;;;;;;13.59;94.59;100348.94;4985524;28;20054;-63
2023/07/05 03:51:52;;;;;;;9.82;4.55;;;;;;;13.58;nan;100357.63;4985476;28;20033;-63
2023/07/05 03:54:17;;;;;;;9.90;4.53;;;;;;;13.59;94.83;100348.06;4985301;28;20120;-63
2023/07/05 03:56:42;;;;;;;9.57;4.72;;;;;;;13.57;94.97;100353.28;4985780;28;20030;-63
2023/07/05 03:59:09;;;;;;;10.25;5.00;;;;;;;13.55;95.24;100345.41;4985223;28;20038;-63
2023/07/05 04:01:34;;;;;;;11.60;4.70;;;;;;;13.56;95.41;100334.06;4984456;28;20026;-62
2023/07/05 04:04:01;;;;;;;8.52;4.43;;;;;;;13.57;95.43;100329.72;4983878;28;20048;-63
2023/07/05 04:06:31;;;;;;;10.82;5.20;;;;;;;13.57;95.98;100337.59;4982627;28;20034;-62
2023/07/05 04:08:57;;;;;;;8.18;4.85;;;;;;;13.55;95.57;100329.69;4984314;28;20080;-62
2023/07/05 04:11:23;;;;;;;10.63;4.22;;;;;;;13.54;95.56;100338.44;4983938;28;20030;-62
2023/07/05 04:13:49;;;;;;;9.63;4.80;;;;;;;13.52;95.67;100347.16;4984083;28;20065;-62
2023/07/05 04:16:19;;;;;;;10.15;5.22;;;;;;;13.55;95.91;100342.78;4961344;28;20125;-62
2023/07/05 04:18:45;;;;;;;10.90;4.43;;;;;;;13.57;95.45;100346.31;4985731;28;20038;-62
2023/07/05 04:21:11;;;;;;;10.75;4.85;;;;;;;13.56;95.55;100339.31;4984790;28;21553;-62
2023/07/05 04:23:39;;;;;;;9.85;4.90;;;;;;;13.57;95.23;100343.69;4984072;28;20157;-62
2023/07/05 04:26:10;;;;;;;9.93;4.55;;;;;;;13.56;95.53;100330.59;4984935;28;20026;-62
2023/07/05 04:28:38;;;;;;;11.13;4.82;;;;;;;13.54;95.44;100338.44;4985713;28;20026;-62
2023/07/05 04:31:05;;;;;;;10.35;4.60;;;;;;;13.57;94.63;100348.06;4984259;28;20049;-62
2023/07/05 04:33:31;;;;;;;11.80;4.90;;;;;;;13.60;93.90;100334.97;4984757;28;20394;-62
2023/07/05 04:35:57;;;;;;;9.70;4.60;;;;;;;13.66;93.70;100347.22;4985810;28;20053;-62
2023/07/05 04:38:24;;;;;;;11.65;4.97;;;;;;;13.67;93.03;100347.22;4965555;28;20022;-62
2023/07/05 04:40:49;;;;;;;11.80;5.00;;;;;;;13.67;92.80;100349.84;4983505;28;20116;-62
2023/07/05 04:43:14;;;;;;;9.27;4.72;;;;;;;13.64;92.25;100341.06;4985768;28;20069;-62
2023/07/05 04:45:40;;;;;;;12.07;4.65;;;;;;;13.65;92.98;100343.69;4985463;28;20396;-62
2023/07/05 04:48:05;;;;;;;11.32;4.55;;;;;;;13.66;92.84;100358.53;4986083;28;20100;-61
2023/07/05 04:50:31;;;;;;;11.35;4.95;;;;;;;13.66;92.89;100357.69;4983356;28;20050;-62
2023/07/05 04:52:56;;;;;;;9.07;4.60;;;;;;;13.67;92.43;100349.84;4983275;28;20034;-62
2023/07/05 04:55:22;;;;;;;9.02;4.43;;;;;;;13.65;92.22;100346.31;4986909;28;20030;-62
2023/07/05 04:57:47;;;;;;;8.88;4.40;;;;;;;13.66;91.77;100345.47;4968477;28;20089;-62
2023/07/05 05:00:13;;;;;;;11.63;4.60;;;;;;;13.69;91.58;100353.31;4989260;28;20142;-61
2023/07/05 05:02:39;;;;;;;10.95;5.35;;;;;;;13.72;90.98;100355.94;4987549;28;20041;-61
2023/07/05 05:05:05;;;;;;;9.70;4.72;;;;;;;13.71;90.93;100348.94;4988542;28;20022;-62
2023/07/05 05:07:31;;;;;;;10.05;4.25;;;;;;;13.74;90.79;100359.44;4988560;28;20531;-61
2023/07/05 05:09:58;;;;;;;9.68;4.28;;;;;;;13.73;90.16;100360.31;4988040;28;20026;-62
2023/07/05 05:12:24;;;;;;;9.32;4.70;;;;;;;13.74;90.06;100348.97;4988716;28;20026;-61
2023/07/05 05:14:49;;;;;;;10.90;4.60;;;;;;;13.84;89.19;100364.69;4988704;28;20037;-61
2023/07/05 05:17:15;;;;;;;9.02;4.05;;;;;;;13.77;89.25;100360.31;4989087;28;20038;-61
2023/07/05 05:19:41;;;;;;;9.25;4.20;;;;;;;13.73;89.45;100362.94;4987752;28;20469;-61
2023/07/05 05:22:06;;;;;;;9.77;4.30;;;;;;;13.72;88.92;100361.16;4969777;28;20029;-61
2023/07/05 05:24:31;;;;;;;10.95;4.78;;;;;;;13.72;89.86;100373.41;4988948;28;20022;-61
2023/07/05 05:26:57;;;;;;;9.20;4.70;;;;;;;13.68;89.12;100367.25;4989332;28;20022;-61
2023/07/05 05:29:22;;;;;;;9.27;4.50;;;;;;;13.72;88.96;100369.03;4987913;28;20089;-62
2023/07/05 05:31:48;;;;;;;9.05;4.18;;;;;;;13.72;89.07;100370.78;4987539;28;20077;-62
2023/07/05 05:34:14;;;;;;;9.35;4.00;;;;;;;13.79;88.41;100367.31;4988703;28;20394;-62
2023/07/05 05:36:39;;;;;;;11.43;4.30;;;;;;;13.72;87.61;100366.41;4970302;28;20033;-61
2023/07/05 05:39:06;;;;;;;9.48;4.57;;;;;;;13.71;88.38;100377.75;4986756;28;20540;-62
2023/07/05 05:41:31;;;;;;;8.85;4.40;;;;;;;13.67;89.22;100368.16;4988007;28;20034;-62
2023/07/05 05:43:57;;;;;;;12.38;4.30;;;;;;;13.69;88.19;100363.78;4986862;28;20393;-61
2023/07/05 05:46:22;;;;;;;9.20;4.30;;;;;;;13.68;87.11;100375.13;4987683;28;20654;-62
2023/07/05 05:48:47;;;;;;;9.55;4.30;;;;;;;13.67;88.44;100370.78;4986830;28;20039;-61
2023/07/05 05:51:14;;;;;;;8.15;4.22;;;;;;;13.72;88.35;100374.25;4985967;28;20058;-61
2023/07/05 05:53:39;;;;;;;8.35;3.78;;;;;;;13.69;89.04;100371.66;4987829;28;20066;-61
2023/07/05 05:56:05;;;;;;;7.13;4.43;;;;;;;13.64;89.43;100381.22;4987523;28;20525;-61
2023/07/05 05:58:30;;;;;;;10.02;4.55;;;;;;;13.64;89.54;100393.44;4986959;28;20117;-62
2023/07/05 06:01:00;;;;;;;8.38;4.57;;;;;;;13.62;88.78;100382.09;4983431;28;20026;-61
2023/07/05 06:03:25;;;;;;;8.77;4.22;;;;;;;13.63;88.45;100403.03;4986332;28;20023;-61
2023/07/05 06:05:53;;;;;;;9.75;4.63;;;;;;;13.78;87.23;100396.97;4985293;28;20037;-62
2023/07/05 06:08:18;;;;;;;8.73;3.75;;;;;;;13.73;87.78;100402.22;4987962;28;20080;-61
2023/07/05 06:10:43;;;;;;;9.30;4.50;;;;;;;13.63;88.63;100412.63;4984700;28;20038;-61
2023/07/05 06:13:09;;;;;;;11.52;3.90;;;;;;;13.69;88.17;100421.38;4985696;28;20022;-62
2023/07/05 06:15:34;;;;;;;8.35;4.18;;;;;;;13.65;88.50;100408.28;4987382;28;20108;-61
2023/07/05 06:17:59;;;;;;;8.07;4.18;;;;;;;13.72;89.04;100433.63;4986781;28;20382;-61
2023/07/05 06:20:26;;;;;;;7.93;4.35;;;;;;;13.69;89.38;100415.28;4985915;28;20030;-62
2023/07/05 06:22:51;;;;;;;10.10;4.40;;;;;;;13.78;88.67;100438.00;4985082;28;20022;-62
2023/07/05 06:25:17;;;;;;;8.65;4.30;;;;;;;13.62;89.96;100406.53;4987700;28;20026;-62
2023/07/05 06:27:42;;;;;;;6.20;3.20;;;;;;;13.68;88.93;100429.25;4986102;28;20493;-62
2023/07/05 06:30:08;;;;;;;7.20;3.63;;;;;;;13.60;90.34;100437.06;4986246;28;20058;-60
2023/07/05 06:32:34;;;;;;;7.78;3.72;;;;;;;13.70;90.02;100444.09;4985470;28;20069;-61
2023/07/05 06:35:00;;;;;;;8.25;4.50;;;;;;;13.83;87.48;100438.88;4985520;28;20092;-60
2023/07/05 06:37:25;;;;;;;7.18;3.08;;;;;;;13.94;86.59;100441.56;4987014;28;20034;-61
2023/07/05 06:39:51;;;;;;;7.85;3.70;;;;;;;13.90;85.97;100440.66;4984771;28;20126;-61
2023/07/05 06:42:16;;;;;;;6.00;3.45;;;;;;;13.96;85.88;100445.03;4986448;28;20154;-60
2023/07/05 06:44:41;;;;;;;8.23;3.92;;;;;;;13.97;85.05;100458.16;4986036;28;20045;-60
2023/07/05 06:47:07;;;;;;;7.30;3.72;;;;;;;14.13;83.98;100448.59;4968278;28;20026;-60
2023/07/05 06:49:32;;;;;;;8.10;3.53;;;;;;;14.14;83.35;100446.88;4985330;28;20477;-60
2023/07/05 06:51:57;;;;;;;9.52;3.92;;;;;;;14.19;84.33;100459.09;4984358;28;20025;-61
2023/07/05 06:54:23;;;;;;;8.15;3.92;;;;;;;14.23;82.33;100475.69;4982671;28;20537;-60
2023/07/05 06:56:48;;;;;;;7.97;4.13;;;;;;;14.26;81.52;100470.47;4998238;23;20054;-92
2023/07/05 06:59:13;;;;;;;10.88;4.47;;;;;;;14.22;81.83;100466.97;4989480;28;20029;-95
2023/07/05 07:01:43;;;;;;;8.00;4.10;;;;;;;14.11;83.95;100471.31;4991600;28;20030;-93
2023/07/05 07:04:08;;;;;;;8.82;4.07;;;;;;;14.15;84.21;100480.94;4989645;28;20456;-94
2023/07/05 07:06:34;;;;;;;6.03;3.08;;;;;;;14.38;82.23;100483.59;4990036;28;20053;-93
2023/07/05 07:09:03;;;;;;;6.55;4.35;;;;;;;14.42;81.38;100485.38;4992038;28;20045;-93
2023/07/05 07:11:29;;;;;;;;;;;;;;;14.50;82.06;100492.38;4991631;28;20543;-94
2023/07/05 07:13:54;;;;;;;6.30;3.70;;;;;;;14.56;82.07;100497.63;4990343;28;20004;-94
2023/07/05 07:16:20;;;;;;;6.35;3.88;;;;;;;14.57;81.60;100502.88;4992295;28;20097;-94
2023/07/05 07:18:50;;;;;;;6.22;2.97;;;;;;;14.61;80.97;100511.59;4972796;28;20080;-95
2023/07/05 07:21:23;;;;;;;4.65;2.72;;;;;;;14.77;79.38;100504.66;4990816;28;20084;-96
2023/07/05 07:23:48;;;;;;;8.18;3.30;;;;;;;14.67;80.03;100522.16;4980416;23;20544;-62
2023/07/05 07:26:18;;;;;;;6.65;3.35;;;;;;;14.57;82.07;100526.47;4959170;28;20118;-61
2023/07/05 07:28:52;;;;;;;6.50;3.55;;;;;;;14.44;84.01;100536.03;4958747;28;20027;-60
2023/07/05 07:31:25;;;;;;;6.07;4.00;;;;;;;14.44;83.44;100540.41;4959105;28;20034;-60
2023/07/05 07:33:51;;;;;;;8.48;3.80;;;;;;;14.22;86.68;100557.78;4949191;28;20719;-60
2023/07/05 07:36:22;;;;;;;7.00;3.65;;;;;;;14.19;87.99;100563.03;4957714;28;20026;-61
2023/07/05 07:38:47;;;;;;;7.30;3.92;;;;;;;13.99;89.27;100574.31;4957997;28;20081;-61
2023/07/05 07:41:14;;;;;;;7.47;4.40;;;;;;;13.80;90.88;100575.94;4939783;28;20023;-61
2023/07/05 07:43:40;;;;;;;8.40;3.80;;;;;;;13.66;91.91;100575.84;4957122;28;20034;-61
2023/07/05 07:46:10;;;;;;;7.28;4.18;;;;;;;13.47;93.55;100571.34;4957180;28;20031;-61
2023/07/05 07:48:36;;;;;;;7.03;4.18;;;;;;;13.41;94.35;100581.78;4957795;28;20066;-61
2023/07/05 07:51:01;;;;;;;7.18;4.68;;;;;;;13.31;94.32;100586.00;4958762;28;20033;-62
2023/07/05 07:53:26;;;;;;;6.65;4.40;;;;;;;13.37;93.41;100589.59;4958762;28;20039;-62
2023/07/05 07:55:52;;;;;;;7.28;3.50;;;;;;;13.41;93.46;100594.84;4958925;28;20031;-62
2023/07/05 07:58:17;;;;;;;8.25;4.68;;;;;;;13.33;95.53;100606.09;4946891;28;20491;-63
2023/07/05 08:00:42;;;;;;;8.23;4.35;;;;;;;13.39;94.92;100593.09;4937787;28;20069;-62
2023/07/05 08:03:08;;;;;;;11.07;4.78;;;;;;;13.28;97.93;100602.59;4935399;28;20403;-62
2023/07/05 08:05:33;;;;;;;7.13;4.55;;;;;;;13.23;99.38;100599.91;4936651;28;20118;-62
2023/07/05 08:07:59;;;;;;;7.60;4.43;;;;;;;13.36;96.45;100602.69;4934129;28;20027;-61
2023/07/05 08:10:27;;;;;;;7.95;4.25;;;;;;;13.27;96.80;100608.69;4937766;28;20157;-61
2023/07/05 08:12:53;;;;;;;9.32;4.90;;;;;;;13.18;99.06;100606.00;4920405;28;20417;-62
2023/07/05 08:15:18;;;;;;;9.02;4.78;;;;;;;13.21;98.79;100606.00;4931539;28;20032;-62
2023/07/05 08:17:43;;;;;;;7.57;5.03;;;;;;;13.22;98.73;100599.91;4932732;28;20095;-63
2023/07/05 08:20:09;;;;;;;8.43;4.80;;;;;;;13.35;97.11;100609.66;4933428;28;20058;-63
2023/07/05 08:22:34;;;;;;;8.70;5.03;;;;;;;13.36;96.84;100603.53;4937360;28;20063;-62
2023/07/05 08:25:00;;;;;;;9.10;5.30;;;;;;;13.51;96.14;100620.22;4933185;28;20082;-62
2023/07/05 08:27:25;;;;;;;10.20;6.00;;;;;;;13.64;98.57;100615.97;4937121;28;20696;-63
2023/07/05 08:29:50;;;;;;;9.27;5.75;;;;;;;13.97;97.15;100620.56;4933249;28;20452;-62
2023/07/05 08:32:16;;;;;;;11.32;5.90;;;;;;;14.26;94.51;100625.06;4934834;28;20030;-62
2023/07/05 08:34:41;;;;;;;8.52;6.20;;;;;;;14.43;93.91;100623.41;4942254;28;20376;-62
2023/07/05 08:37:07;;;;;;;12.95;6.82;;;;;;;14.74;90.54;100631.44;4935628;28;20028;-62
2023/07/05 08:39:33;;;;;;;10.15;5.50;;;;;;;15.05;86.65;100630.63;4940759;28;20062;-62
2023/07/05 08:42:20;;;;;;;10.77;6.13;;;;;;;15.20;84.71;100635.88;4940484;28;20028;-61
2023/07/05 08:44:55;;;;;;;9.88;7.03;;;;;;;15.04;86.93;100655.97;4942441;28;20047;-61
2023/07/05 08:47:36;;;;;;;10.77;6.95;;;;;;;15.22;87.11;100654.25;4925416;28;20039;-61
2023/07/05 08:50:16;;;;;;;14.00;7.47;;;;;;;15.43;87.36;100669.16;4939923;28;20046;-61
2023/07/05 08:52:44;;;;;;;12.75;6.97;;;;;;;15.62;85.14;100659.53;4942338;28;20023;-61
2023/07/05 08:55:21;;;;;;;11.85;7.18;;;;;;;15.69;84.45;100663.06;4940095;28;20035;-60
2023/07/05 08:57:53;;;;;;;10.23;5.55;;;;;;;15.80;84.18;100679.69;4942144;28;20051;-61
2023/07/05 09:00:29;;;;;;;12.38;6.85;;;;;;;15.96;82.63;100675.28;4934203;28;20023;-61
2023/07/05 09:02:55;;;;;;;14.40;6.85;;;;;;;16.02;81.51;100672.69;4938341;28;20032;-61
2023/07/05 09:06:00;;;;;;;9.85;7.00;;;;;;;16.22;82.16;100685.78;4933795;28;20027;-60
2023/07/05 09:09:04;;;;;;;8.85;5.40;;;;;;;16.47;79.27;100705.00;4971043;23;20021;-94
2023/07/05 09:11:59;;;;;;;9.05;5.43;;;;;;;16.48;78.63;100695.34;5009414;28;20025;-94
2023/07/05 09:14:33;;;;;;;12.55;6.40;;;;;;;16.51;79.70;100704.13;4997380;28;20126;-94
2023/07/05 09:17:01;;;;;;;9.73;4.20;;;;;;;16.77;76.53;100718.94;4985417;28;20570;-95
2023/07/05 09:20:09;;;;;;;8.18;4.20;;;;;;;16.92;74.23;100717.16;4993465;28;20052;-95
2023/07/05 09:22:39;;;;;;;7.18;4.47;;;;;;;16.76;75.08;100737.34;4990100;28;20034;-95
2023/07/05 09:25:08;;;;;;;8.77;4.70;;;;;;;16.78;74.00;100710.13;4992774;28;20125;-95
2023/07/05 09:27:39;;;;;;;8.70;4.70;;;;;;;16.69;74.59;100721.56;4991550;28;20029;-96
2023/07/05 09:30:20;;;;;;;10.23;4.80;;;;;;;16.73;75.57;100717.19;5009519;28;20050;-95
2023/07/05 09:32:57;;;;;;;7.68;4.47;;;;;;;17.06;73.60;100728.50;4986130;28;20089;-96
2023/07/05 09:35:30;;;;;;;10.98;5.43;;;;;;;17.09;71.79;100735.47;4983888;28;20033;-96
2023/07/05 09:38:11;;;;;;;7.80;3.58;;;;;;;17.28;72.04;100741.50;4984783;28;20045;-96
2023/07/05 09:40:49;;;;;;;8.90;4.30;;;;;;;17.36;71.70;100752.88;4984020;28;20048;-96
2023/07/05 09:43:36;;;;;;;7.80;3.77;;;;;;;17.70;67.35;100731.59;4983549;28;20034;-96
2023/07/05 09:46:14;;;;;;;9.63;4.13;;;;;;;17.50;69.77;100763.34;4985301;28;20026;-95
2023/07/05 09:48:49;;;;;;;10.05;3.72;;;;;;;17.61;69.82;100760.63;4982854;28;20080;-96
2023/07/05 09:51:36;;;;;;;6.35;3.28;;;;;;;17.77;66.06;100774.56;4991810;28;20030;-96
2023/07/05 09:54:29;;;;;;;5.75;2.90;;;;;;;17.91;64.67;100764.84;4985081;28;20125;-96
2023/07/05 09:57:29;;;;;;;7.68;2.80;;;;;;;17.87;64.14;100777.16;4989874;28;20038;-96
2023/07/05 10:01:05;;;;;;;4.43;2.03;;;;;;;17.96;64.45;100770.97;4994806;28;20056;-96
2023/07/05 10:03:20;;;;;;;6.80;2.95;;;;;;;18.05;66.57;100778.78;5014802;28;20032;-96
2023/07/05 10:06:28;;;;;;;;;;;;;;;;;;;;;
2023/07/05 10:16:13;;;;;;;;;;;;;;;;;;;;;
2023/07/05 10:18:47;;;;;;;8.20;2.17;;;;;;;17.97;60.16;100809.59;4934783;29;20032;-96
2023/07/05 10:21:29;;;;;;;7.00;2.22;;;;;;;18.06;61.64;100816.56;4932272;29;20047;-96
2023/07/05 10:24:04;;;;;;;5.30;2.33;;;;;;;18.18;62.13;100811.19;4912883;29;20035;-96
2023/07/05 10:27:13;;;;;;;;;;;;;;;;;;;;;
2023/07/05 10:29:49;;;;;;;5.13;1.63;;;;;;;18.46;57.07;100832.03;5004835;28;20533;-96
2023/07/05 10:32:51;;;;;;;5.38;2.28;;;;;;;18.25;56.65;100849.81;5014260;28;20030;-96
2023/07/05 10:35:26;;;;;;;7.30;2.00;;;;;;;18.09;59.66;100853.47;5002621;23;20487;-60
2023/07/05 10:37:52;;;;;;;6.90;1.80;;;;;;;18.19;58.13;100860.44;4991991;28;20055;-60
2023/07/05 10:40:21;;;;;;;3.80;1.80;;;;;;;18.18;57.30;100852.53;4995055;28;20037;-60
2023/07/05 10:42:51;;;;;;;5.97;1.80;;;;;;;18.23;58.04;100854.25;4991275;28;20085;-60
2023/07/05 10:45:19;;;;;;;6.50;2.15;;;;;;;18.27;56.50;100856.84;4990546;28;20025;-60
2023/07/05 10:47:53;;;;;;;5.18;1.83;;;;;;;18.13;57.00;100868.34;4990038;28;20522;-60
2023/07/05 10:50:33;;;;;;;7.72;1.88;;;;;;;18.06;54.61;100864.91;4990009;28;20030;-60
2023/07/05 10:53:02;;;;;;;4.32;1.60;;;;;;;17.86;56.07;100872.91;4995028;28;20382;-60
2023/07/05 10:55:39;;;;;;;7.45;1.95;;;;;;;17.88;57.04;100876.41;4993050;28;20025;-60
2023/07/05 10:58:15;;;;;;;5.30;2.00;;;;;;;18.08;56.79;100862.25;4993516;28;20033;-60
2023/07/05 11:00:49;;;;;;;4.72;1.80;;;;;;;18.23;56.34;100871.81;4990273;28;20026;-61
2023/07/05 11:03:58;;;;;;;5.80;1.85;;;;;;;18.32;56.14;100877.03;4988914;28;20034;-60
2023/07/05 11:06:25;;;;;;;4.57;2.22;;;;;;;18.44;54.14;100873.41;4983232;28;20611;-60
2023/07/05 11:08:51;;;;;;;6.25;1.92;;;;;;;18.55;55.58;100876.84;4985617;28;20797;-60
2023/07/05 11:11:23;;;;;;;6.35;1.98;;;;;;;18.49;57.74;100887.44;4976138;28;20121;-60
2023/07/05 11:13:51;;;;;;;4.47;1.88;;;;;;;18.74;54.23;100893.38;4986770;28;20034;-60
2023/07/05 11:16:39;;;;;;;5.07;1.73;;;;;;;18.81;54.18;100894.19;4983153;28;20038;-60
2023/07/05 11:19:10;;;;;;;8.02;1.98;;;;;;;18.71;53.45;100881.97;4982648;28;20029;-60
2023/07/05 11:21:44;;;;;;;5.47;1.95;;;;;;;18.74;54.23;100888.09;4987069;28;20022;-60
2023/07/05 11:24:12;;;;;;;7.75;1.88;;;;;;;18.97;56.19;100891.44;4983842;28;20022;-60
2023/07/05 11:26:44;;;;;;;5.82;1.77;;;;;;;19.16;54.32;100885.06;4983501;28;20033;-60
2023/07/05 11:29:33;;;;;;;4.68;1.75;;;;;;;19.52;50.82;100914.56;4992818;28;20493;-62
2023/07/05 11:31:59;;;;;;;5.03;1.80;;;;;;;19.33;51.16;100905.97;4981067;28;20621;-62
2023/07/05 11:34:25;;;;;;;6.93;2.00;;;;;;;19.05;52.84;100911.56;4990961;28;20041;-62
2023/07/05 11:37:10;;;;;;;6.03;2.30;;;;;;;19.00;55.00;100923.06;4974041;28;20051;-62
2023/07/05 11:39:45;;;;;;;6.03;1.70;;;;;;;19.07;55.09;100919.47;4924023;28;20652;-62
2023/07/05 11:42:16;;;;;;;4.55;2.00;;;;;;;19.25;56.40;100921.94;4973865;28;20502;-62
2023/07/05 11:44:46;;;;;;;5.75;2.00;;;;;;;19.52;56.14;100921.63;4971864;28;20030;-62
2023/07/05 11:47:34;;;;;;;4.18;1.88;;;;;;;19.83;51.43;100926.53;4968819;28;20033;-62